Time;durP1;ratioP1;P1;durP2;ratioP2;P2;SDS_P1;SDS_P2;PMS_P1;PMS_P2;Temp;Humidity;BMP_temperature;BMP_pressure;BME280_temperature;BME280_humidity;BME280_pressure;Samples;Min_cycle;Max_cycle;Signal;HPM_P1;HPM_P2
2020/12/28 00:00:33;;;;;;;0.80;0.80;;;6.30;99.90;;;;;;5025948;28;20491;-73
2020/12/28 00:02:59;;;;;;;0.77;0.45;;;6.30;99.90;;;;;;5019155;28;20032;-76
2020/12/28 00:05:25;;;;;;;0.68;0.50;;;6.20;99.90;;;;;;5020414;28;20117;-74
2020/12/28 00:07:52;;;;;;;0.60;0.60;;;6.00;99.90;;;;;;5023396;28;20056;-71
2020/12/28 00:10:19;;;;;;;2.22;0.50;;;6.00;99.90;;;;;;5023178;28;20034;-75
2020/12/28 00:12:48;;;;;;;0.75;0.57;;;5.90;99.90;;;;;;5020531;28;20025;-74
2020/12/28 00:15:34;;;;;;;0.55;0.55;;;6.00;99.90;;;;;;5019103;28;20038;-74
2020/12/28 00:18:01;;;;;;;2.25;0.63;;;5.90;99.90;;;;;;5020817;28;20034;-73
2020/12/28 00:20:29;;;;;;;0.70;0.70;;;5.90;99.90;;;;;;5022385;28;20029;-74
2020/12/28 00:22:55;;;;;;;0.43;0.43;;;6.00;99.90;;;;;;5024436;28;20409;-73
2020/12/28 00:25:25;;;;;;;0.47;0.47;;;6.10;99.90;;;;;;5018755;28;20021;-74
2020/12/28 00:27:51;;;;;;;1.25;0.88;;;6.20;99.90;;;;;;5021227;28;20148;-74
2020/12/28 00:30:17;;;;;;;0.50;0.50;;;6.30;99.90;;;;;;5021184;28;20642;-74
2020/12/28 00:32:43;;;;;;;0.93;0.68;;;6.30;99.90;;;;;;5020715;28;20036;-74
2020/12/28 00:35:10;;;;;;;0.60;0.60;;;6.30;99.90;;;;;;5020954;28;20036;-75
2020/12/28 00:37:36;;;;;;;0.90;0.65;;;6.20;99.90;;;;;;5019590;28;20396;-76
2020/12/28 00:40:04;;;;;;;0.52;0.52;;;6.30;99.90;;;;;;5019317;28;20029;-76
2020/12/28 00:42:30;;;;;;;0.63;0.63;;;6.30;99.90;;;;;;5020863;28;20018;-75
2020/12/28 00:44:56;;;;;;;0.95;0.70;;;6.20;99.90;;;;;;5019054;28;20018;-74
2020/12/28 00:47:21;;;;;;;1.35;0.63;;;6.10;99.90;;;;;;5021269;28;20483;-74
2020/12/28 00:49:47;;;;;;;0.50;0.47;;;6.20;99.90;;;;;;5018236;28;20034;-74
2020/12/28 00:52:13;;;;;;;0.47;0.47;;;6.10;99.90;;;;;;5019565;28;20035;-74
2020/12/28 00:54:38;;;;;;;0.70;0.70;;;6.10;99.90;;;;;;5018396;28;20028;-76
2020/12/28 00:57:04;;;;;;;0.60;0.52;;;6.00;99.90;;;;;;5019284;28;20046;-75
2020/12/28 00:59:30;;;;;;;0.60;0.60;;;6.00;99.90;;;;;;5016318;28;20038;-74
2020/12/28 01:01:57;;;;;;;0.63;0.47;;;5.90;99.90;;;;;;5024724;28;20439;-75
2020/12/28 01:04:23;;;;;;;0.40;0.40;;;5.90;99.90;;;;;;5017431;28;20108;-74
2020/12/28 01:06:48;;;;;;;0.70;0.70;;;5.80;99.90;;;;;;5015099;28;20057;-74
2020/12/28 01:09:14;;;;;;;0.65;0.65;;;5.70;99.90;;;;;;5033138;28;20010;-74
2020/12/28 01:11:40;;;;;;;0.65;0.63;;;5.60;99.90;;;;;;5038709;28;20052;-74
2020/12/28 01:14:06;;;;;;;0.52;0.52;;;5.70;99.90;;;;;;5030680;28;20104;-78
2020/12/28 01:16:32;;;;;;;1.08;0.75;;;5.70;99.90;;;;;;5020282;28;20105;-76
2020/12/28 01:18:58;;;;;;;0.50;0.50;;;5.90;99.90;;;;;;5027054;28;20029;-76
2020/12/28 01:21:23;;;;;;;2.75;0.70;;;6.00;99.90;;;;;;5017349;28;20034;-76
2020/12/28 01:23:50;;;;;;;1.50;0.65;;;6.10;99.90;;;;;;5027261;28;20040;-75
2020/12/28 01:26:17;;;;;;;0.73;0.70;;;6.10;99.90;;;;;;5014936;28;20427;-76
2020/12/28 01:28:44;;;;;;;1.45;0.77;;;6.20;99.90;;;;;;5016351;28;20410;-75
2020/12/28 01:31:10;;;;;;;0.50;0.50;;;6.40;99.90;;;;;;5021062;28;20080;-76
2020/12/28 01:33:35;;;;;;;0.50;0.50;;;6.40;99.90;;;;;;5020553;28;20026;-73
2020/12/28 01:36:02;;;;;;;0.75;0.60;;;6.60;99.90;;;;;;5021899;28;20052;-75
2020/12/28 01:38:28;;;;;;;0.80;0.80;;;6.50;99.90;;;;;;5032215;28;20120;-75
2020/12/28 01:40:53;;;;;;;0.40;0.40;;;6.50;99.90;;;;;;5030391;28;20507;-76
2020/12/28 01:43:19;;;;;;;0.47;0.47;;;6.50;99.90;;;;;;5032440;28;20026;-74
2020/12/28 01:45:45;;;;;;;0.50;0.50;;;6.60;99.90;;;;;;5032750;28;20021;-74
2020/12/28 01:48:11;;;;;;;2.22;0.70;;;6.60;99.90;;;;;;5031162;28;20395;-76
2020/12/28 01:50:37;;;;;;;0.75;0.70;;;6.70;99.90;;;;;;5034380;28;20048;-76
2020/12/28 01:53:03;;;;;;;0.73;0.63;;;6.60;99.90;;;;;;5034646;28;20033;-76
2020/12/28 01:55:31;;;;;;;0.80;0.80;;;6.60;99.90;;;;;;5037640;28;20026;-76
2020/12/28 01:57:57;;;;;;;0.60;0.60;;;6.60;99.90;;;;;;5038242;28;20037;-76
2020/12/28 02:00:22;;;;;;;0.75;0.52;;;6.70;99.90;;;;;;5038149;28;20036;-76
2020/12/28 02:02:49;;;;;;;0.82;0.52;;;6.60;99.90;;;;;;5034441;28;20550;-76
2020/12/28 02:05:15;;;;;;;1.17;0.40;;;6.60;99.90;;;;;;5037710;28;20075;-76
2020/12/28 02:07:42;;;;;;;0.82;0.50;;;6.50;99.90;;;;;;5037921;28;20472;-76
2020/12/28 02:10:09;;;;;;;0.43;0.43;;;6.50;99.90;;;;;;5038314;28;20039;-76
2020/12/28 02:12:38;;;;;;;0.47;0.47;;;6.40;99.90;;;;;;5038804;28;20531;-76
2020/12/28 02:15:05;;;;;;;0.50;0.50;;;6.30;99.90;;;;;;5044243;28;20053;-77
2020/12/28 02:17:31;;;;;;;0.73;0.63;;;6.30;99.90;;;;;;5045163;28;20034;-76
2020/12/28 02:19:57;;;;;;;1.23;0.65;;;6.30;99.90;;;;;;5047305;28;20029;-76
2020/12/28 02:22:23;;;;;;;0.82;0.73;;;6.40;99.90;;;;;;5043238;28;20096;-75
2020/12/28 02:24:48;;;;;;;0.50;0.50;;;6.30;99.90;;;;;;5036031;28;20100;-75
2020/12/28 02:27:14;;;;;;;0.47;0.40;;;6.30;99.90;;;;;;5036665;28;20085;-75
2020/12/28 02:29:39;;;;;;;0.60;0.60;;;6.20;99.90;;;;;;5034084;28;20030;-74
2020/12/28 02:32:05;;;;;;;0.73;0.65;;;6.20;99.90;;;;;;5034153;28;20345;-74
2020/12/28 02:34:31;;;;;;;0.73;0.60;;;6.20;99.90;;;;;;5035175;28;20047;-74
2020/12/28 02:36:56;;;;;;;1.00;0.50;;;6.30;99.90;;;;;;5019683;28;20494;-77
2020/12/28 02:39:22;;;;;;;0.60;0.60;;;6.10;99.90;;;;;;5017384;28;20507;-76
2020/12/28 02:41:47;;;;;;;0.55;0.50;;;6.10;99.90;;;;;;5026062;23;20129;-76
2020/12/28 02:44:13;;;;;;;0.95;0.73;;;6.10;99.90;;;;;;5044375;28;20479;-76
2020/12/28 02:46:39;;;;;;;0.60;0.50;;;6.10;99.90;;;;;;5053573;28;20390;-76
2020/12/28 02:49:04;;;;;;;1.95;0.70;;;6.10;99.90;;;;;;5052802;28;20017;-75
2020/12/28 02:51:30;;;;;;;0.68;0.68;;;6.10;99.90;;;;;;5045367;28;20398;-76
2020/12/28 02:53:56;;;;;;;0.70;0.60;;;6.00;99.90;;;;;;5015807;28;20421;-76
2020/12/28 02:56:21;;;;;;;0.50;0.50;;;6.00;99.90;;;;;;5033169;28;20045;-76
2020/12/28 02:58:47;;;;;;;0.60;0.60;;;6.00;99.90;;;;;;5033108;28;20499;-75
2020/12/28 03:01:12;;;;;;;0.60;0.60;;;6.00;99.90;;;;;;5034157;28;20038;-76
2020/12/28 03:03:38;;;;;;;0.40;0.40;;;6.00;99.90;;;;;;5034591;28;20045;-76
2020/12/28 03:06:04;;;;;;;0.40;0.40;;;6.00;99.90;;;;;;5033695;28;20039;-76
2020/12/28 03:08:29;;;;;;;0.32;0.32;;;5.90;99.90;;;;;;5015965;28;20502;-75
2020/12/28 03:10:55;;;;;;;0.40;0.40;;;5.90;99.90;;;;;;5033371;28;20104;-75
2020/12/28 03:13:21;;;;;;;0.40;0.40;;;5.90;99.90;;;;;;5018676;28;20025;-76
2020/12/28 03:15:46;;;;;;;0.55;0.43;;;5.90;99.90;;;;;;5049009;28;20033;-75
2020/12/28 03:18:12;;;;;;;0.88;0.57;;;5.80;99.90;;;;;;5030013;28;20021;-76
2020/12/28 03:20:37;;;;;;;0.55;0.55;;;5.80;99.90;;;;;;5033309;28;20033;-76
2020/12/28 03:23:03;;;;;;;0.40;0.40;;;5.70;99.90;;;;;;5032320;28;20026;-76
2020/12/28 03:25:29;;;;;;;0.68;0.68;;;5.70;99.90;;;;;;5015166;28;20418;-76
2020/12/28 03:27:54;;;;;;;1.27;0.70;;;5.70;99.90;;;;;;5032790;28;20021;-76
2020/12/28 03:30:20;;;;;;;0.82;0.82;;;5.60;99.90;;;;;;5032310;28;20037;-76
2020/12/28 03:32:46;;;;;;;1.45;0.70;;;5.60;99.90;;;;;;5014174;28;20499;-76
2020/12/28 03:35:11;;;;;;;0.47;0.47;;;5.50;99.90;;;;;;5029014;28;20029;-77
2020/12/28 03:37:37;;;;;;;0.80;0.70;;;5.50;99.90;;;;;;4995123;28;20026;-76
2020/12/28 03:40:03;;;;;;;0.60;0.60;;;5.50;99.90;;;;;;5012824;28;20029;-77
2020/12/28 03:42:29;;;;;;;0.70;0.63;;;5.50;99.90;;;;;;5012516;28;20121;-76
2020/12/28 03:44:54;;;;;;;0.52;0.40;;;5.40;99.90;;;;;;5011928;28;20060;-75
2020/12/28 03:47:20;;;;;;;0.40;0.40;;;5.30;99.90;;;;;;5029606;28;20045;-75
2020/12/28 03:49:46;;;;;;;0.50;0.50;;;5.30;99.90;;;;;;5032413;28;20494;-77
2020/12/28 03:52:13;;;;;;;0.65;0.50;;;5.30;99.90;;;;;;5032362;28;20065;-76
2020/12/28 03:54:39;;;;;;;0.50;0.50;;;5.20;99.90;;;;;;5014083;28;20398;-75
2020/12/28 03:57:04;;;;;;;0.50;0.50;;;5.20;99.90;;;;;;5014566;28;20040;-77
2020/12/28 03:59:30;;;;;;;0.40;0.40;;;5.10;99.90;;;;;;5014550;28;20037;-76
2020/12/28 04:01:55;;;;;;;0.38;0.38;;;5.10;99.90;;;;;;5032227;28;20561;-76
2020/12/28 04:04:21;;;;;;;0.43;0.43;;;5.10;99.90;;;;;;5031616;28;20025;-76
2020/12/28 04:06:47;;;;;;;0.70;0.70;;;5.00;99.90;;;;;;5031993;28;20053;-76
2020/12/28 04:09:12;;;;;;;0.40;0.40;;;5.10;99.90;;;;;;5032505;28;20104;-77
2020/12/28 04:11:38;;;;;;;0.50;0.50;;;5.00;99.90;;;;;;5032103;28;20021;-76
2020/12/28 04:14:04;;;;;;;0.45;0.40;;;5.00;99.90;;;;;;5031599;28;20068;-76
2020/12/28 04:16:29;;;;;;;0.60;0.60;;;5.00;99.90;;;;;;5032002;28;20025;-75
2020/12/28 04:18:55;;;;;;;0.60;0.60;;;5.00;99.90;;;;;;5032542;28;20450;-74
2020/12/28 04:21:21;;;;;;;1.40;0.75;;;4.90;99.90;;;;;;5031887;28;20383;-75
2020/12/28 04:23:46;;;;;;;0.60;0.60;;;4.90;99.90;;;;;;5031750;28;20022;-75
2020/12/28 04:26:12;;;;;;;1.05;0.63;;;4.90;99.90;;;;;;5032724;28;20022;-76
2020/12/28 04:28:37;;;;;;;0.50;0.50;;;5.00;99.90;;;;;;5013896;28;20112;-77
2020/12/28 04:31:07;;;;;;;0.57;0.55;;;4.90;99.90;;;;;;5015046;28;20116;-77
2020/12/28 04:33:33;;;;;;;0.60;0.60;;;4.80;99.90;;;;;;5034002;28;20051;-76
2020/12/28 04:35:59;;;;;;;0.60;0.60;;;4.90;99.90;;;;;;5033405;28;20540;-77
2020/12/28 04:38:25;;;;;;;0.50;0.50;;;4.90;99.90;;;;;;5034080;28;20029;-77
2020/12/28 04:40:51;;;;;;;0.57;0.57;;;4.80;99.90;;;;;;5034034;28;20052;-76
2020/12/28 04:43:17;;;;;;;0.70;0.57;;;4.80;99.90;;;;;;5032392;28;20556;-77
2020/12/28 04:45:42;;;;;;;0.60;0.60;;;4.90;99.90;;;;;;5033255;28;20097;-76
2020/12/28 04:48:09;;;;;;;0.60;0.60;;;4.90;99.90;;;;;;5028565;28;20030;-76
2020/12/28 04:50:36;;;;;;;1.00;0.90;;;4.90;99.90;;;;;;5012250;28;20076;-77
2020/12/28 04:53:04;;;;;;;0.70;0.70;;;4.80;99.90;;;;;;5011947;28;20037;-76
2020/12/28 04:55:30;;;;;;;0.70;0.70;;;4.90;99.90;;;;;;4994780;28;20034;-76
2020/12/28 04:57:56;;;;;;;2.08;0.50;;;4.80;99.90;;;;;;4994936;28;20395;-77
2020/12/28 05:00:22;;;;;;;0.60;0.60;;;4.90;99.90;;;;;;5010368;28;20052;-77
2020/12/28 05:02:48;;;;;;;0.75;0.75;;;4.90;99.90;;;;;;5041053;28;20033;-77
2020/12/28 05:05:13;;;;;;;0.75;0.75;;;4.90;99.90;;;;;;5042626;28;20029;-78
2020/12/28 05:07:42;;;;;;;1.15;1.02;;;4.80;99.90;;;;;;5018128;28;20053;-77
2020/12/28 05:10:19;;;;;;;1.10;1.08;;;4.80;99.90;;;;;;5032840;28;20029;-77
2020/12/28 05:12:44;;;;;;;1.20;1.20;;;4.80;99.90;;;;;;5033023;28;20040;-76
2020/12/28 05:15:10;;;;;;;0.98;0.90;;;4.70;99.90;;;;;;5032684;28;20112;-77
2020/12/28 05:17:36;;;;;;;1.15;1.15;;;4.80;99.90;;;;;;5032005;28;20390;-76
2020/12/28 05:20:04;;;;;;;1.42;1.25;;;4.80;99.90;;;;;;5032210;28;20104;-77
2020/12/28 05:22:31;;;;;;;1.25;1.15;;;4.70;99.90;;;;;;5031691;28;20398;-77
2020/12/28 05:24:57;;;;;;;1.52;1.35;;;4.50;99.90;;;;;;5031363;28;20029;-77
2020/12/28 05:27:23;;;;;;;2.92;1.20;;;4.50;99.90;;;;;;5032129;28;20086;-77
2020/12/28 05:29:50;;;;;;;2.53;1.33;;;4.60;99.90;;;;;;5035745;28;20469;-77
2020/12/28 05:32:16;;;;;;;2.05;1.10;;;4.60;99.90;;;;;;5035335;28;20030;-77
2020/12/28 05:34:46;;;;;;;2.08;1.20;;;4.60;99.90;;;;;;5035601;28;20036;-76
2020/12/28 05:37:13;;;;;;;1.20;1.13;;;4.60;99.90;;;;;;5034914;28;20049;-77
2020/12/28 05:39:43;;;;;;;2.00;1.20;;;4.60;99.90;;;;;;5035605;28;20360;-77
2020/12/28 05:42:12;;;;;;;1.38;1.23;;;4.60;99.90;;;;;;5035756;28;20418;-79
2020/12/28 05:44:40;;;;;;;2.55;1.52;;;4.70;99.90;;;;;;5035390;28;20450;-77
2020/12/28 05:47:13;;;;;;;1.73;1.52;;;4.60;99.90;;;;;;5035844;28;20026;-76
2020/12/28 05:49:44;;;;;;;1.55;1.45;;;4.60;99.90;;;;;;5037774;28;20057;-76
2020/12/28 05:52:11;;;;;;;1.45;1.10;;;4.60;99.90;;;;;;5036651;28;20036;-77
2020/12/28 05:54:38;;;;;;;2.45;1.10;;;4.50;99.90;;;;;;5034519;28;20116;-77
2020/12/28 05:57:05;;;;;;;1.40;1.25;;;4.60;99.90;;;;;;5037811;28;20049;-76
2020/12/28 05:59:32;;;;;;;1.10;1.10;;;4.60;99.90;;;;;;5036054;28;20031;-77
2020/12/28 06:01:59;;;;;;;2.55;1.30;;;4.60;99.90;;;;;;5017188;28;20022;-75
2020/12/28 06:04:25;;;;;;;1.25;1.10;;;4.60;99.90;;;;;;5016823;28;20026;-77
2020/12/28 06:07:02;;;;;;;2.28;1.20;;;4.60;99.90;;;;;;5034519;28;20017;-74
2020/12/28 06:09:29;;;;;;;4.13;1.42;;;4.60;99.90;;;;;;5017495;28;20033;-77
2020/12/28 06:12:08;;;;;;;1.25;1.10;;;4.60;99.90;;;;;;5019672;28;20022;-77
2020/12/28 06:14:38;;;;;;;2.20;1.00;;;4.60;99.90;;;;;;5020983;28;20022;-77
2020/12/28 06:17:09;;;;;;;1.23;1.13;;;4.60;99.90;;;;;;5025320;28;20419;-77
2020/12/28 06:19:36;;;;;;;1.15;1.02;;;4.60;99.90;;;;;;5032493;28;20036;-76
2020/12/28 06:22:02;;;;;;;1.00;1.00;;;4.60;99.90;;;;;;5035365;28;20026;-77
2020/12/28 06:24:28;;;;;;;3.20;1.40;;;4.60;99.90;;;;;;5036438;28;20083;-76
2020/12/28 06:27:07;;;;;;;2.67;1.10;;;4.60;99.90;;;;;;5023477;28;20026;-77
2020/12/28 06:29:34;;;;;;;2.30;1.60;;;4.60;99.90;;;;;;5041199;28;20045;-78
2020/12/28 06:32:16;;;;;;;1.90;1.33;;;4.60;99.90;;;;;;5029617;28;20016;-76
2020/12/28 06:34:45;;;;;;;;;;;4.60;99.90;;;;;;5036718;28;20037;-75
2020/12/28 06:37:12;;;;;;;1.40;1.30;;;4.60;99.90;;;;;;5036228;28;19909;-77
2020/12/28 06:39:38;;;;;;;1.38;1.27;;;4.60;99.90;;;;;;5021761;28;20029;-77
2020/12/28 06:42:09;;;;;;;1.55;1.40;;;4.60;99.90;;;;;;5039886;28;20044;-77
2020/12/28 06:44:35;;;;;;;2.75;1.65;;;4.60;99.90;;;;;;5016579;28;20061;-74
2020/12/28 06:47:02;;;;;;;3.42;1.83;;;4.50;99.90;;;;;;5033875;28;20026;-76
2020/12/28 06:49:42;;;;;;;1.30;1.23;;;4.40;99.90;;;;;;5033781;28;20021;-76
2020/12/28 06:52:07;;;;;;;2.55;1.30;;;4.50;99.90;;;;;;5032990;28;20033;-76
2020/12/28 06:54:33;;;;;;;2.15;1.40;;;4.60;99.90;;;;;;5032926;28;20047;-76
2020/12/28 06:57:06;;;;;;;2.30;1.40;;;4.60;99.90;;;;;;5034375;28;20032;-76
2020/12/28 06:59:33;;;;;;;1.25;1.15;;;4.60;99.90;;;;;;5034283;28;20051;-76
2020/12/28 07:02:03;;;;;;;1.27;1.17;;;4.60;99.90;;;;;;5033805;28;20479;-76
2020/12/28 07:04:37;;;;;;;4.55;2.40;;;4.60;99.90;;;;;;5033298;28;20052;-75
2020/12/28 07:07:07;;;;;;;2.53;1.73;;;4.50;99.90;;;;;;5033226;28;20056;-77
2020/12/28 07:09:35;;;;;;;2.28;1.50;;;4.60;99.90;;;;;;5033367;28;20029;-76
2020/12/28 07:12:11;;;;;;;2.53;1.65;;;4.60;99.90;;;;;;5033797;28;20048;-75
2020/12/28 07:14:37;;;;;;;4.35;2.20;;;4.60;99.90;;;;;;5032034;28;20511;-76
2020/12/28 07:17:04;;;;;;;2.22;2.03;;;4.50;99.90;;;;;;5032909;28;20112;-74
2020/12/28 07:19:30;;;;;;;4.10;1.90;;;4.60;99.90;;;;;;5017482;28;20040;-75
2020/12/28 07:21:56;;;;;;;3.97;2.20;;;4.50;99.90;;;;;;5012697;28;20488;-74
2020/12/28 07:24:22;;;;;;;3.08;1.80;;;4.50;99.90;;;;;;5012104;28;20472;-75
2020/12/28 07:26:48;;;;;;;4.20;1.35;;;4.40;99.90;;;;;;5012697;28;20092;-76
2020/12/28 07:29:18;;;;;;;1.20;1.10;;;4.40;99.90;;;;;;5012718;28;20030;-76
2020/12/28 07:31:45;;;;;;;1.83;1.42;;;4.40;99.90;;;;;;5017513;28;20026;-71
2020/12/28 07:34:15;;;;;;;1.98;1.73;;;4.50;99.90;;;;;;5019705;28;20030;-74
2020/12/28 07:36:44;;;;;;;1.33;1.23;;;4.50;99.90;;;;;;5022252;28;20045;-74
2020/12/28 07:39:11;;;;;;;1.33;1.23;;;4.50;99.90;;;;;;5020545;28;20448;-74
2020/12/28 07:41:38;;;;;;;1.25;1.13;;;4.50;99.90;;;;;;5021189;28;20041;-73
2020/12/28 07:44:04;;;;;;;2.10;0.70;;;4.40;99.90;;;;;;5018401;28;20041;-76
2020/12/28 07:46:33;;;;;;;0.70;0.70;;;4.50;99.90;;;;;;5022099;28;20053;-75
2020/12/28 07:49:11;;;;;;;1.33;1.10;;;4.40;99.90;;;;;;5022343;28;20017;-75
2020/12/28 07:51:39;;;;;;;0.85;0.70;;;4.40;99.90;;;;;;5019035;28;20108;-75
2020/12/28 07:54:39;;;;;;;0.43;0.43;;;4.40;99.90;;;;;;5019369;28;20125;-74
2020/12/28 07:57:06;;;;;;;0.50;0.50;;;4.50;99.90;;;;;;4989683;28;20041;-75
2020/12/28 08:00:07;;;;;;;2.80;0.60;;;4.50;99.90;;;;;;5020852;28;20030;-74
2020/12/28 08:03:10;;;;;;;1.05;0.63;;;4.50;99.90;;;;;;5029499;28;20489;-72
2020/12/28 08:05:37;;;;;;;0.50;0.50;;;4.50;99.90;;;;;;4952399;29;20024;-72
2020/12/28 08:08:03;;;;;;;0.30;0.30;;;4.40;99.90;;;;;;4998501;28;20041;-73
2020/12/28 08:10:28;;;;;;;1.67;0.85;;;4.50;99.90;;;;;;5034217;28;20036;-68
2020/12/28 08:13:01;;;;;;;1.85;1.02;;;5.20;99.90;;;;;;5032198;28;20387;-69
2020/12/28 08:15:31;;;;;;;0.47;0.40;;;6.60;99.90;;;;;;5032360;28;20022;-70
2020/12/28 08:18:07;;;;;;;0.82;0.60;;;7.10;99.90;;;;;;5015651;28;20029;-69
2020/12/28 08:20:33;;;;;;;1.02;0.60;;;6.60;99.90;;;;;;5032612;28;20025;-71
2020/12/28 08:22:59;;;;;;;1.25;1.02;;;6.40;99.90;;;;;;5018176;28;20485;-72
2020/12/28 08:25:29;;;;;;;1.50;1.17;;;5.80;99.90;;;;;;5035594;28;20029;-71
2020/12/28 08:27:56;;;;;;;1.38;1.27;;;5.20;99.90;;;;;;5038627;28;20021;-70
2020/12/28 08:30:24;;;;;;;4.53;1.20;;;5.00;99.90;;;;;;5006560;28;20030;-70
2020/12/28 08:32:49;;;;;;;3.60;3.30;;;4.90;99.90;;;;;;5034072;28;20033;-71
2020/12/28 08:35:15;;;;;;;1.17;1.17;;;4.80;99.90;;;;;;5031338;28;20029;-72
2020/12/28 08:37:47;;;;;;;1.63;1.52;;;4.60;99.90;;;;;;5033128;28;20033;-73
2020/12/28 08:40:15;;;;;;;2.70;2.50;;;4.60;99.90;;;;;;5032470;28;20511;-74
2020/12/28 08:42:41;;;;;;;2.85;2.17;;;4.70;99.90;;;;;;5030712;28;20446;-71
2020/12/28 08:45:07;;;;;;;3.40;3.10;;;4.60;99.90;;;;;;5033053;28;20399;-72
2020/12/28 08:47:32;;;;;;;2.15;1.92;;;4.70;99.90;;;;;;5037340;28;20064;-74
2020/12/28 08:49:58;;;;;;;3.17;2.63;;;4.80;99.90;;;;;;5047994;28;20021;-71
2020/12/28 08:52:24;;;;;;;8.98;8.18;;;4.70;99.90;;;;;;5054171;28;20037;-73
2020/12/28 08:54:59;;;;;;;2.53;2.33;;;4.80;99.90;;;;;;5036184;28;20025;-72
2020/12/28 08:57:27;;;;;;;3.15;2.70;;;4.80;99.90;;;;;;5055292;28;20014;-73
2020/12/28 08:59:54;;;;;;;3.50;2.00;;;4.70;99.90;;;;;;5047869;28;20049;-74
2020/12/28 09:02:21;;;;;;;2.20;1.73;;;4.70;99.90;;;;;;5047452;28;20022;-74
2020/12/28 09:04:47;;;;;;;4.50;1.70;;;4.70;99.90;;;;;;5049459;28;20428;-73
2020/12/28 09:07:14;;;;;;;3.45;1.88;;;4.70;99.90;;;;;;5037314;28;20059;-73
2020/12/28 09:09:42;;;;;;;2.50;1.90;;;4.70;99.90;;;;;;5035174;28;20475;-74
2020/12/28 09:12:08;;;;;;;2.45;2.25;;;4.70;99.90;;;;;;5035221;28;20035;-72
2020/12/28 09:14:34;;;;;;;2.22;1.88;;;4.80;99.90;;;;;;5034196;28;20181;-72
2020/12/28 09:17:00;;;;;;;1.73;1.63;;;4.90;99.90;;;;;;5035301;28;20490;-73
2020/12/28 09:19:26;;;;;;;1.52;1.42;;;4.90;99.90;;;;;;5034802;28;20439;-72
2020/12/28 09:21:52;;;;;;;1.75;1.58;;;5.00;99.90;;;;;;5034898;28;20079;-73
2020/12/28 09:24:18;;;;;;;2.25;1.70;;;5.00;99.90;;;;;;5034150;28;20075;-74
2020/12/28 09:26:43;;;;;;;1.50;1.40;;;5.10;99.90;;;;;;5035022;28;20033;-72
2020/12/28 09:29:09;;;;;;;4.20;3.75;;;5.20;99.90;;;;;;5034879;28;20018;-72
2020/12/28 09:31:35;;;;;;;6.47;3.80;;;5.30;99.90;;;;;;5034812;28;20034;-73
2020/12/28 09:34:00;;;;;;;6.45;5.00;;;5.10;99.90;;;;;;5033835;28;20026;-74
2020/12/28 09:36:26;;;;;;;3.38;2.75;;;5.20;99.90;;;;;;5033939;28;20104;-74
2020/12/28 09:38:52;;;;;;;2.33;2.13;;;5.30;99.90;;;;;;5034617;28;20391;-73
2020/12/28 09:41:17;;;;;;;4.72;3.42;;;5.30;99.90;;;;;;5034585;28;20495;-74
2020/12/28 09:43:43;;;;;;;3.17;2.60;;;5.30;99.90;;;;;;5033725;28;20410;-74
2020/12/28 09:46:10;;;;;;;2.97;2.70;;;5.20;99.90;;;;;;5034693;28;20021;-73
2020/12/28 09:48:36;;;;;;;2.90;2.60;;;5.20;99.90;;;;;;5034499;28;20053;-74
2020/12/28 09:51:06;;;;;;;2.97;2.78;;;5.30;99.90;;;;;;5034585;28;20080;-75
2020/12/28 09:53:31;;;;;;;3.25;2.58;;;5.30;99.90;;;;;;5033448;28;20033;-74
2020/12/28 09:55:57;;;;;;;3.20;2.92;;;5.30;99.90;;;;;;5033911;28;20025;-74
2020/12/28 09:58:23;;;;;;;2.45;2.25;;;5.30;99.90;;;;;;5034498;28;20029;-75
2020/12/28 10:00:49;;;;;;;2.67;2.25;;;5.40;99.90;;;;;;5016601;28;20033;-74
2020/12/28 10:03:16;;;;;;;3.83;2.20;;;5.30;99.90;;;;;;5033677;28;20484;-74
2020/12/28 10:05:42;;;;;;;3.25;2.38;;;5.40;99.90;;;;;;5033825;28;20192;-68
2020/12/28 10:08:08;;;;;;;2.30;2.10;;;5.50;99.90;;;;;;5025827;28;20101;-74
2020/12/28 10:10:34;;;;;;;3.22;2.20;;;5.90;99.90;;;;;;5034109;28;20025;-74
2020/12/28 10:12:59;;;;;;;3.33;2.10;;;5.80;99.90;;;;;;5033084;28;20058;-74
2020/12/28 10:15:25;;;;;;;2.90;2.30;;;5.80;99.90;;;;;;5015464;28;20064;-74
2020/12/28 10:18:22;;;;;;;3.35;2.30;;;5.70;99.90;;;;;;5034028;28;20033;-74
2020/12/28 10:20:48;;;;;;;4.45;2.35;;;5.70;99.90;;;;;;5033884;28;20029;-74
2020/12/28 10:23:14;;;;;;;4.57;2.55;;;5.60;99.90;;;;;;5033113;28;20534;-73
2020/12/28 10:25:40;;;;;;;5.57;2.65;;;5.50;99.90;;;;;;5033757;28;20045;-74
2020/12/28 10:28:06;;;;;;;5.05;2.75;;;5.40;99.90;;;;;;5034005;28;20115;-74
2020/12/28 10:30:31;;;;;;;5.40;2.90;;;5.60;99.90;;;;;;5033924;28;20109;-75
2020/12/28 10:32:57;;;;;;;3.70;3.03;;;5.60;99.90;;;;;;5033128;28;20121;-73
2020/12/28 10:35:23;;;;;;;21.05;9.02;;;5.50;99.90;;;;;;5015864;28;20075;-73
2020/12/28 10:37:49;;;;;;;25.75;12.00;;;5.50;99.90;;;;;;5033234;28;20056;-70
2020/12/28 10:40:15;;;;;;;21.55;11.63;;;5.60;99.90;;;;;;5033587;28;20025;-71
2020/12/28 10:42:41;;;;;;;18.67;10.15;;;5.60;99.90;;;;;;5032840;28;20053;-72
2020/12/28 10:45:07;;;;;;;9.10;6.05;;;5.60;99.90;;;;;;5033122;28;20057;-70
2020/12/28 10:47:32;;;;;;;9.60;5.32;;;5.70;99.90;;;;;;5015060;28;20021;-73
2020/12/28 10:49:58;;;;;;;5.13;3.80;;;5.60;99.90;;;;;;5014733;28;20083;-73
2020/12/28 10:52:23;;;;;;;4.05;3.10;;;5.70;99.90;;;;;;5013751;28;20133;-70
2020/12/28 10:54:49;;;;;;;4.97;3.50;;;5.80;99.90;;;;;;5013269;28;20053;-71
2020/12/28 10:57:15;;;;;;;4.88;3.40;;;5.70;99.90;;;;;;5022077;28;20488;-70
2020/12/28 10:59:40;;;;;;;3.47;2.60;;;5.80;99.90;;;;;;5023943;28;20553;-73
2020/12/28 11:02:06;;;;;;;5.60;3.92;;;5.70;99.90;;;;;;5020446;28;20387;-72
2020/12/28 11:04:32;;;;;;;9.27;5.38;;;5.60;99.90;;;;;;5032491;28;20496;-73
2020/12/28 11:06:58;;;;;;;12.25;6.25;;;5.80;99.90;;;;;;5032832;28;20056;-72
2020/12/28 11:09:24;;;;;;;12.32;6.68;;;5.80;99.90;;;;;;5033392;28;20021;-71
2020/12/28 11:11:51;;;;;;;18.67;8.57;;;5.90;99.90;;;;;;5033192;28;20056;-71
2020/12/28 11:14:17;;;;;;;10.20;5.80;;;5.90;99.90;;;;;;5048964;28;20021;-72
2020/12/28 11:16:42;;;;;;;9.98;5.35;;;5.90;99.90;;;;;;5051074;28;20022;-71
2020/12/28 11:19:08;;;;;;;9.70;5.28;;;5.80;99.90;;;;;;5034297;28;20032;-72
2020/12/28 11:21:34;;;;;;;9.07;5.93;;;5.90;99.90;;;;;;5051990;28;20049;-72
2020/12/28 11:24:01;;;;;;;5.80;4.15;;;6.00;99.90;;;;;;5050709;28;20026;-73
2020/12/28 11:26:35;;;;;;;9.18;8.38;;;6.00;99.90;;;;;;5033680;28;20078;-73
2020/12/28 11:29:05;;;;;;;3.75;1.60;;;6.10;99.90;;;;;;5033219;28;20029;-72
2020/12/28 11:31:30;;;;;;;2.85;2.65;;;6.10;99.90;;;;;;5032713;28;20032;-71
2020/12/28 11:33:56;;;;;;;1.73;1.63;;;6.10;99.90;;;;;;5032276;28;20022;-72
2020/12/28 11:36:22;;;;;;;2.75;1.98;;;6.00;99.90;;;;;;5032316;28;20021;-71
2020/12/28 11:38:48;;;;;;;2.17;2.08;;;6.10;99.90;;;;;;5032595;28;20053;-72
2020/12/28 11:41:18;;;;;;;1.55;1.45;;;6.20;99.90;;;;;;5033668;28;20519;-72
2020/12/28 11:43:44;;;;;;;3.05;2.75;;;6.20;99.90;;;;;;5033223;28;20045;-71
2020/12/28 11:46:16;;;;;;;3.22;2.97;;;6.30;99.90;;;;;;5090691;27;20372;-69
2020/12/28 11:48:42;;;;;;;3.22;2.80;;;6.40;99.90;;;;;;5087705;28;20024;-71
2020/12/28 11:51:08;;;;;;;2.95;1.98;;;6.40;99.90;;;;;;5089689;28;20028;-73
2020/12/28 11:53:35;;;;;;;3.45;2.40;;;6.40;99.90;;;;;;5072424;28;20024;-73
2020/12/28 11:56:19;;;;;;;2.25;1.83;;;6.50;99.90;;;;;;5069051;28;20078;-74
2020/12/28 11:58:46;;;;;;;2.40;2.10;;;6.50;99.90;;;;;;5068856;28;20028;-72
2020/12/28 12:01:16;;;;;;;2.60;2.40;;;6.40;99.90;;;;;;5068761;28;20392;-73
2020/12/28 12:03:44;;;;;;;3.55;2.70;;;6.40;99.90;;;;;;5048095;28;20033;-73
2020/12/28 12:06:22;;;;;;;2.97;2.67;;;6.50;99.90;;;;;;5055895;28;20039;-72
2020/12/28 12:11:34;;;;;;;1.83;1.73;;;6.30;99.90;;;;;;5050322;28;20072;-71
2020/12/28 12:14:00;;;;;;;1.85;1.63;;;6.20;99.90;;;;;;5047712;28;20025;-73
2020/12/28 12:16:26;;;;;;;3.20;1.63;;;6.20;99.90;;;;;;5047872;28;20022;-73
2020/12/28 12:18:52;;;;;;;1.70;1.50;;;6.10;99.90;;;;;;5048457;28;20029;-72
2020/12/28 12:21:18;;;;;;;1.42;1.23;;;6.10;99.90;;;;;;5048233;28;20017;-74
2020/12/28 12:23:44;;;;;;;2.67;1.40;;;6.00;99.90;;;;;;5047217;28;20014;-74
2020/12/28 12:26:10;;;;;;;5.22;1.65;;;6.10;99.90;;;;;;5047814;28;20434;-73
2020/12/28 12:28:36;;;;;;;2.65;1.52;;;5.90;99.90;;;;;;5059010;28;20057;-73
2020/12/28 12:31:02;;;;;;;2.75;1.70;;;5.80;99.90;;;;;;5068118;28;20045;-71
2020/12/28 12:33:29;;;;;;;5.55;1.73;;;5.80;99.90;;;;;;5058048;28;20024;-73
2020/12/28 12:35:55;;;;;;;1.45;1.08;;;5.80;99.90;;;;;;5053132;28;20069;-72
2020/12/28 12:38:21;;;;;;;1.98;1.23;;;5.70;99.90;;;;;;5067947;28;20025;-72
2020/12/28 12:40:47;;;;;;;1.52;1.00;;;5.70;99.90;;;;;;5083754;28;20024;-71
2020/12/28 12:43:12;;;;;;;0.95;0.95;;;5.60;99.90;;;;;;5085074;28;20085;-72
2020/12/28 12:45:38;;;;;;;1.73;1.15;;;5.60;99.90;;;;;;5067008;28;20031;-71
2020/12/28 12:48:04;;;;;;;1.65;1.40;;;5.50;99.90;;;;;;5067707;28;20450;-71
2020/12/28 12:50:29;;;;;;;1.77;1.63;;;5.60;99.90;;;;;;5067727;28;20556;-71
2020/12/28 12:52:55;;;;;;;2.33;1.55;;;5.60;99.90;;;;;;5066708;28;20033;-71
2020/12/28 12:55:21;;;;;;;5.47;1.55;;;5.70;99.90;;;;;;5067468;28;20028;-72
2020/12/28 12:57:46;;;;;;;2.15;1.17;;;5.70;99.90;;;;;;5053951;28;20455;-71
2020/12/28 13:00:17;;;;;;;2.17;1.70;;;5.60;99.90;;;;;;5051994;28;20506;-71